Oatmeal, Texas
Current Conditions -  °F | °C
As of 4:53 AM on Wednesday 26 Nov 2014 (Local Time) from KBMQ Reporting Station
Clear Clear  
Wind Chill: 36°   Ceiling: Unl
Heat Index: 36°   Visibility: NA
Dew Point: 29°   Wind: 0mph
Humidity: 76%   Direction: NA
Pressure: 30.17"   Gusts: NA
Location:  30.7452°N, 98.043°W
Report Text: KBMQ 261053Z AUTO 00000KT CLR 02/M02 A3017 RMK AO2 SLP212 T00221017 $
Loading
Personal Weather Stations






























Interactive Weather Map New forecast layout! Learn more

10-Day Weather Forecast

Advertisements
Track Severe Weather on mobile